createdAt,value
2023-05-05T00:01:47.306Z,41190.56
2023-05-05T00:04:14.850Z,41122.72
2023-05-05T00:06:42.246Z,41046.94
2023-05-05T00:09:09.504Z,41017.00
2023-05-05T00:11:36.714Z,40927.22
2023-05-05T00:14:06.556Z,40881.34
2023-05-05T00:16:33.946Z,40889.31
2023-05-05T00:19:05.818Z,40875.34
2023-05-05T00:21:35.452Z,40795.56
2023-05-05T00:24:02.886Z,40829.47
2023-05-05T00:26:30.222Z,40843.44
2023-05-05T00:28:57.783Z,40801.56
2023-05-05T00:31:24.936Z,40751.69
2023-05-05T00:33:52.195Z,40731.72
2023-05-05T00:36:22.036Z,40763.66
2023-05-05T00:38:49.170Z,40743.69
2023-05-05T00:41:16.471Z,40703.81
2023-05-05T00:43:43.575Z,40703.81
2023-05-05T00:46:30.727Z,40675.88
2023-05-05T00:48:58.121Z,40679.88
2023-05-05T00:51:28.651Z,40675.88
2023-05-05T00:53:58.694Z,40661.91
2023-05-05T00:56:27.387Z,40669.91
2023-05-05T00:58:55.185Z,40713.78
2023-05-05T01:01:23.075Z,40711.78
2023-05-05T01:03:50.445Z,40701.81
2023-05-05T01:06:25.273Z,40731.72
2023-05-05T01:09:21.674Z,40727.75
2023-05-05T01:12:14.726Z,40779.59
2023-05-05T01:14:53.049Z,40791.56
2023-05-05T01:17:24.426Z,40789.59
2023-05-05T01:20:20.761Z,40763.66
2023-05-05T01:22:53.137Z,40711.78
2023-05-05T01:26:00.558Z,40683.84
2023-05-05T01:28:50.988Z,40675.88
2023-05-05T01:31:27.115Z,40655.94
2023-05-05T01:34:16.726Z,40691.84
2023-05-05T01:36:49.620Z,40699.81
2023-05-05T01:39:22.088Z,40663.91
2023-05-05T01:41:56.774Z,40647.97
2023-05-05T01:44:24.438Z,40637.97
2023-05-05T01:46:53.194Z,40636.00
2023-05-05T01:49:20.751Z,40675.88
2023-05-05T01:51:49.190Z,40711.78
2023-05-05T01:54:18.658Z,40663.91
2023-05-05T01:56:48.620Z,40675.88
2023-05-05T01:59:21.061Z,40663.91
2023-05-05T02:01:49.960Z,40608.06
2023-05-05T02:04:18.579Z,40624.03
2023-05-05T02:06:50.336Z,40620.03
2023-05-05T02:09:17.638Z,40596.09
2023-05-05T02:11:45.390Z,40518.31
2023-05-05T02:14:16.159Z,40564.19
2023-05-05T02:16:46.789Z,40550.22
2023-05-05T02:19:15.688Z,40526.28
2023-05-05T02:21:43.149Z,40512.31
2023-05-05T02:24:13.045Z,40458.47
2023-05-05T02:26:43.944Z,40454.47
2023-05-05T02:29:19.786Z,40392.63
2023-05-05T02:31:50.612Z,40386.66
2023-05-05T02:34:27.961Z,40378.69
2023-05-05T02:37:03.504Z,40376.69
2023-05-05T02:39:43.731Z,40378.69
2023-05-05T02:42:21.609Z,40332.81
2023-05-05T02:44:55.488Z,40382.66
2023-05-05T02:47:23.464Z,40306.88
2023-05-05T02:49:55.256Z,40292.91
2023-05-05T02:52:24.991Z,40328.81
2023-05-05T02:54:52.702Z,40300.88
2023-05-05T02:57:26.181Z,40290.91
2023-05-05T03:00:20.789Z,40282.94
2023-05-05T03:03:07.471Z,40310.88
2023-05-05T03:05:45.867Z,40326.81
2023-05-05T03:08:20.628Z,40368.69
2023-05-05T03:10:58.892Z,40356.75
2023-05-05T03:13:28.254Z,40326.81
2023-05-05T03:15:57.934Z,40294.91
2023-05-05T03:18:29.859Z,40308.88
2023-05-05T03:21:08.874Z,40276.97
2023-05-05T03:23:39.228Z,40219.13
2023-05-05T03:26:17.144Z,40185.22
2023-05-05T03:28:44.402Z,40049.59
2023-05-05T03:31:34.424Z,40011.69
2023-05-05T03:34:04.962Z,39991.75
2023-05-05T03:36:39.819Z,39957.84
2023-05-05T03:39:12.574Z,39933.91
2023-05-05T03:41:39.882Z,39957.84
2023-05-05T03:44:09.172Z,39923.94
2023-05-05T03:46:37.320Z,39929.94
2023-05-05T03:49:09.101Z,39933.91
2023-05-05T03:51:40.981Z,39925.94
2023-05-05T03:54:11.204Z,39906.00
2023-05-05T03:56:41.346Z,39884.06
2023-05-05T03:59:13.208Z,39908.00
2023-05-05T04:01:40.533Z,39951.88
2023-05-05T04:04:09.404Z,39959.84
2023-05-05T04:06:36.788Z,39913.97
2023-05-05T04:09:07.161Z,39888.06
2023-05-05T04:11:34.690Z,39902.00
2023-05-05T04:14:04.682Z,39979.78
2023-05-05T04:16:32.400Z,39921.94
2023-05-05T04:19:00.047Z,39868.09
2023-05-05T04:21:29.569Z,39884.06
2023-05-05T04:23:59.316Z,39814.25
2023-05-05T04:26:29.193Z,39842.19
2023-05-05T04:28:56.910Z,39786.34
2023-05-05T04:31:24.416Z,39782.34
2023-05-05T04:33:56.920Z,39750.44
2023-05-05T04:36:24.122Z,39708.56
2023-05-05T04:38:51.390Z,39634.78
2023-05-05T04:41:18.792Z,39662.69
2023-05-05T04:43:46.415Z,39646.75
2023-05-05T04:46:14.446Z,39561.00
2023-05-05T04:48:41.721Z,39578.94
2023-05-05T04:51:09.567Z,39525.13
2023-05-05T04:53:37.920Z,39527.09
2023-05-05T04:56:05.696Z,39535.09
2023-05-05T04:58:33.009Z,39527.09
2023-05-05T05:01:00.420Z,39441.38
2023-05-05T05:03:27.808Z,39427.41
2023-05-05T05:05:57.362Z,39395.50
2023-05-05T05:08:24.881Z,39431.38
2023-05-05T05:10:52.185Z,39403.47
2023-05-05T05:13:19.563Z,39405.47
2023-05-05T05:15:46.870Z,39387.53
2023-05-05T05:18:14.104Z,39389.53
2023-05-05T05:20:44.083Z,39365.59
2023-05-05T05:23:11.689Z,39347.66
2023-05-05T05:25:45.917Z,39305.78
2023-05-05T05:28:15.356Z,39289.81
2023-05-05T05:30:48.121Z,39279.84
2023-05-05T05:33:17.731Z,39208.06
2023-05-05T05:35:47.748Z,39218.03
2023-05-05T05:38:17.541Z,39166.19
2023-05-05T05:40:44.892Z,39186.13
2023-05-05T05:43:12.479Z,39166.19
2023-05-05T05:45:40.293Z,39150.25
2023-05-05T05:48:08.618Z,39146.25
2023-05-05T05:50:37.921Z,39148.25
2023-05-05T05:53:05.319Z,39146.25
2023-05-05T05:55:32.704Z,39168.19
2023-05-05T05:58:00.306Z,39170.19
2023-05-05T06:00:30.377Z,39102.41
2023-05-05T06:03:04.438Z,39092.44
2023-05-05T06:05:35.685Z,39092.44
2023-05-05T06:08:05.356Z,38974.78
2023-05-05T06:10:36.519Z,38695.69
2023-05-05T06:13:08.746Z,38643.84
2023-05-05T06:15:41.750Z,38582.06
2023-05-05T06:18:09.494Z,38534.22
2023-05-05T06:20:39.202Z,38454.47
2023-05-05T06:23:07.089Z,38352.81
2023-05-05T06:25:41.982Z,38328.88
2023-05-05T06:28:09.356Z,38231.22
2023-05-05T06:30:36.732Z,38195.34
2023-05-05T06:33:04.180Z,38171.41
2023-05-05T06:35:32.065Z,38195.34
2023-05-05T06:38:01.526Z,38237.19
2023-05-05T06:40:31.809Z,38245.16
2023-05-05T06:43:01.256Z,38271.09
2023-05-05T06:45:37.318Z,38275.06
2023-05-05T06:48:04.766Z,38257.13
2023-05-05T06:50:32.152Z,38269.09
2023-05-05T06:52:59.451Z,38227.22
2023-05-05T06:55:26.732Z,38255.13
2023-05-05T06:57:54.251Z,38263.09
2023-05-05T07:00:26.438Z,38259.13
2023-05-05T07:02:56.339Z,38255.13
2023-05-05T07:05:23.786Z,38291.00
2023-05-05T07:07:52.824Z,38334.88
2023-05-05T07:10:25.988Z,38304.97
2023-05-05T07:12:54.815Z,38322.91
2023-05-05T07:15:28.644Z,38342.84
2023-05-05T07:17:57.497Z,38388.69
2023-05-05T07:20:27.158Z,38428.56
2023-05-05T07:22:54.452Z,38460.44
2023-05-05T07:25:23.458Z,38462.44
2023-05-05T07:27:51.081Z,38534.22
2023-05-05T07:30:21.327Z,38629.91
2023-05-05T07:32:49.619Z,38669.78
2023-05-05T07:35:17.154Z,38647.84
2023-05-05T07:37:45.954Z,38729.56
2023-05-05T07:40:13.651Z,38815.31
2023-05-05T07:42:43.397Z,38914.97
2023-05-05T07:45:15.727Z,39094.41
2023-05-05T07:47:43.115Z,39060.53
2023-05-05T07:50:13.183Z,39050.56
2023-05-05T07:52:49.972Z,39210.06
2023-05-05T07:55:21.344Z,39142.28
2023-05-05T07:57:49.740Z,39126.31
2023-05-05T08:00:19.452Z,39247.94
2023-05-05T08:02:47.966Z,39389.53
2023-05-05T08:05:18.520Z,39423.41
2023-05-05T08:07:45.961Z,39541.06
2023-05-05T08:10:13.303Z,39718.53
2023-05-05T08:12:40.912Z,39798.31
2023-05-05T08:15:08.957Z,39535.09
2023-05-05T08:17:46.632Z,39439.38
2023-05-05T08:20:16.303Z,39704.59
2023-05-05T08:22:44.135Z,40518.31
2023-05-05T08:25:17.152Z,40606.06
2023-05-05T08:27:44.605Z,41459.91
2023-05-05T08:30:12.446Z,41154.66
2023-05-05T08:32:40.524Z,40881.34
2023-05-05T08:35:08.405Z,40492.38
2023-05-05T08:37:36.402Z,40402.63
2023-05-05T08:40:04.521Z,39513.16
2023-05-05T08:42:37.031Z,38518.25
2023-05-05T08:45:07.711Z,37760.84
2023-05-05T08:47:36.830Z,37372.22
2023-05-05T08:50:09.943Z,37109.19
2023-05-05T08:52:45.182Z,36846.16
2023-05-05T08:55:26.754Z,36674.81
2023-05-05T08:58:01.213Z,36509.47
2023-05-05T09:00:31.522Z,36387.94
2023-05-05T09:03:00.220Z,36332.16
2023-05-05T09:05:32.330Z,36304.25
2023-05-05T09:08:02.248Z,36646.94
2023-05-05T09:10:32.629Z,37093.25
2023-05-05T09:13:00.192Z,37262.63
2023-05-05T09:15:28.387Z,37633.28
2023-05-05T09:17:58.548Z,38083.72
2023-05-05T09:20:37.079Z,38498.31
2023-05-05T09:23:15.115Z,38799.34
2023-05-05T09:26:05.664Z,39002.72
2023-05-05T09:28:32.932Z,39056.53
2023-05-05T09:31:16.204Z,39409.47
2023-05-05T09:33:43.878Z,39594.91
2023-05-05T09:36:13.366Z,41182.59
2023-05-05T09:38:40.870Z,45650.47
2023-05-05T09:41:08.039Z,45848.22
2023-05-05T09:43:53.679Z,49818.22
2023-05-05T09:46:21.146Z,48996.25
2023-05-05T09:48:51.405Z,47674.72
2023-05-05T09:51:28.987Z,50448.34
2023-05-05T09:53:56.812Z,51951.06
2023-05-05T09:56:37.632Z,55365.22
2023-05-05T09:59:09.437Z,56391.13
2023-05-05T10:01:43.362Z,60241.09
2023-05-05T10:04:22.956Z,61011.59
2023-05-05T10:07:05.976Z,59984.28
2023-05-05T10:09:36.319Z,57930.59
2023-05-05T10:12:05.527Z,55878.13
2023-05-05T10:14:34.769Z,55605.63
2023-05-05T10:17:03.034Z,56647.66
2023-05-05T10:19:37.296Z,58443.91
2023-05-05T10:22:10.804Z,57417.38
2023-05-05T10:24:40.432Z,57417.38
2023-05-05T10:27:15.123Z,56647.66
2023-05-05T10:29:54.636Z,54852.38
2023-05-05T10:32:53.564Z,55621.66
2023-05-05T10:35:23.520Z,54754.22
2023-05-05T10:37:50.925Z,54079.25
2023-05-05T10:40:21.600Z,53226.22
2023-05-05T10:42:50.852Z,53200.19
2023-05-05T10:45:21.697Z,51482.75
2023-05-05T10:47:49.840Z,50710.41
2023-05-05T10:50:33.486Z,50604.38
2023-05-05T10:53:16.628Z,50390.31
2023-05-05T10:56:05.242Z,50036.25
2023-05-05T10:58:51.165Z,49114.25
2023-05-05T11:01:33.033Z,47880.63
2023-05-05T11:04:23.643Z,46437.63
2023-05-05T11:07:11.844Z,47005.16
2023-05-05T11:10:06.736Z,46585.50
2023-05-05T11:12:54.577Z,45494.63
2023-05-05T11:15:30.670Z,44847.47
2023-05-05T11:17:59.222Z,43645.38
2023-05-05T11:20:43.454Z,43160.25
2023-05-05T11:23:10.826Z,43886.94
2023-05-05T11:25:40.639Z,43920.91
2023-05-05T11:28:16.278Z,43393.81
2023-05-05T11:30:59.205Z,43102.38
2023-05-05T11:33:34.950Z,43493.63
2023-05-05T11:36:08.928Z,42962.63
2023-05-05T11:38:38.432Z,42555.44
2023-05-05T11:41:19.595Z,42072.50
2023-05-05T11:43:46.781Z,42375.84
2023-05-05T11:46:16.816Z,42535.50
2023-05-05T11:48:49.456Z,42122.38
2023-05-05T11:51:18.507Z,42036.56
2023-05-05T11:53:49.884Z,41813.06
2023-05-05T11:56:21.811Z,41621.53
2023-05-05T11:59:05.162Z,41549.69
2023-05-05T12:01:32.776Z,42042.56
2023-05-05T12:04:03.714Z,42587.38
2023-05-05T12:06:33.544Z,42389.81
2023-05-05T12:09:01.302Z,42154.31
2023-05-05T12:11:28.504Z,42429.72
2023-05-05T12:14:11.333Z,42579.41
2023-05-05T12:16:39.324Z,43345.91
2023-05-05T12:19:08.178Z,43258.06
2023-05-05T12:21:40.167Z,42775.00
2023-05-05T12:24:12.514Z,43611.44
2023-05-05T12:26:42.213Z,44050.69
2023-05-05T12:29:11.817Z,42641.28
2023-05-05T12:31:42.030Z,43319.94
2023-05-05T12:34:11.136Z,43393.81
2023-05-05T12:36:41.632Z,43118.34
2023-05-05T12:39:09.145Z,43363.88
2023-05-05T12:41:36.524Z,42186.25
2023-05-05T12:44:04.327Z,41429.97
2023-05-05T12:46:48.413Z,40558.19
2023-05-05T12:49:16.542Z,40464.44
2023-05-05T12:51:59.009Z,39923.94
2023-05-05T12:54:30.232Z,39927.94
2023-05-05T12:56:58.579Z,40003.72
2023-05-05T12:59:25.925Z,39798.31
2023-05-05T13:01:57.038Z,39838.19
2023-05-05T13:04:26.677Z,40065.53
2023-05-05T13:07:13.852Z,39834.22
2023-05-05T13:09:41.490Z,39973.81
2023-05-05T13:12:12.391Z,39876.09
2023-05-05T13:14:42.979Z,39989.75
2023-05-05T13:17:11.849Z,40029.66
2023-05-05T13:19:45.892Z,40087.47
2023-05-05T13:22:18.498Z,40093.47
2023-05-05T13:24:51.436Z,40598.09
2023-05-05T13:27:20.447Z,40803.53
2023-05-05T13:29:51.137Z,40414.59
2023-05-05T13:32:19.571Z,40308.88
2023-05-05T13:34:46.986Z,40127.38
2023-05-05T13:37:14.560Z,40095.47
2023-05-05T13:39:51.927Z,39712.56
2023-05-05T13:42:19.387Z,39688.63
2023-05-05T13:44:46.852Z,39638.78
2023-05-05T13:47:16.962Z,39588.91
2023-05-05T13:49:44.204Z,39465.28
2023-05-05T13:52:11.658Z,39283.84
2023-05-05T13:54:57.074Z,39357.63
2023-05-05T13:57:44.862Z,39351.63
2023-05-05T14:00:28.886Z,39247.94
2023-05-05T14:02:56.045Z,39355.63
2023-05-05T14:05:23.365Z,39379.56
2023-05-05T14:07:55.750Z,39421.41
2023-05-05T14:10:26.048Z,39477.25
2023-05-05T14:13:11.359Z,39413.44
2023-05-05T14:16:08.404Z,39447.34
2023-05-05T14:18:45.658Z,39746.47
2023-05-05T14:21:13.268Z,39858.13
2023-05-05T14:23:58.946Z,39567.00
2023-05-05T14:26:45.847Z,39511.16
2023-05-05T14:29:20.295Z,39626.81
2023-05-05T14:31:49.691Z,39325.72
2023-05-05T14:34:19.106Z,39477.25
2023-05-05T14:36:46.683Z,39509.16
2023-05-05T14:39:16.003Z,39447.34
2023-05-05T14:41:43.446Z,39543.06
2023-05-05T14:44:10.723Z,39543.06
2023-05-05T14:46:38.257Z,39782.34
2023-05-05T14:49:07.964Z,40181.22
2023-05-05T14:51:37.526Z,40388.66
2023-05-05T14:54:17.413Z,40400.63
2023-05-05T14:56:55.263Z,40037.63
2023-05-05T14:59:22.432Z,39894.03
2023-05-05T15:01:52.011Z,39888.06
2023-05-05T15:04:21.599Z,39884.06
2023-05-05T15:06:50.069Z,39961.84
2023-05-05T15:09:18.058Z,39967.81
2023-05-05T15:11:45.822Z,39830.22
2023-05-05T15:14:17.843Z,39792.31
2023-05-05T15:16:46.736Z,39999.72
2023-05-05T15:19:16.505Z,40149.31
2023-05-05T15:21:43.672Z,40161.28
2023-05-05T15:24:11.058Z,40440.50
2023-05-05T15:26:42.837Z,40566.16
2023-05-05T15:29:10.253Z,40769.63
2023-05-05T15:31:37.522Z,40883.34
2023-05-05T15:34:04.719Z,40913.25
2023-05-05T15:36:32.221Z,41096.78
2023-05-05T15:39:02.695Z,41216.50
2023-05-05T15:41:36.225Z,41226.47
2023-05-05T15:44:08.723Z,41475.88
2023-05-05T15:46:36.150Z,41737.25
2023-05-05T15:49:05.888Z,41451.94
2023-05-05T15:51:33.278Z,41366.13
2023-05-05T15:54:03.519Z,41368.13
2023-05-05T15:56:35.570Z,41527.75
2023-05-05T15:59:03.264Z,41607.56
2023-05-05T16:01:33.650Z,41916.84
2023-05-05T16:04:03.623Z,42138.34
2023-05-05T16:06:33.277Z,42579.41
2023-05-05T16:09:00.631Z,42800.94
2023-05-05T16:11:30.863Z,42427.72
2023-05-05T16:13:58.161Z,41643.47
2023-05-05T16:16:30.710Z,40965.13
2023-05-05T16:18:58.264Z,41074.84
2023-05-05T16:21:34.929Z,40897.31
2023-05-05T16:24:04.852Z,40598.09
2023-05-05T16:26:32.272Z,40492.38
2023-05-05T16:28:59.514Z,40354.75
2023-05-05T16:31:27.042Z,40376.69
2023-05-05T16:33:57.441Z,40187.19
2023-05-05T16:36:28.536Z,40247.03
2023-05-05T16:38:56.449Z,40149.31
2023-05-05T16:41:23.902Z,40207.16
2023-05-05T16:43:51.507Z,40354.75
2023-05-05T16:46:21.103Z,40524.28
2023-05-05T16:48:48.298Z,40588.13
2023-05-05T16:51:18.045Z,40596.09
2023-05-05T16:53:49.050Z,40600.09
2023-05-05T16:56:18.831Z,40837.47
2023-05-05T16:58:49.044Z,40805.53
2023-05-05T17:01:41.745Z,40725.75
2023-05-05T17:04:12.124Z,40679.88
2023-05-05T17:06:39.341Z,40775.63
2023-05-05T17:09:09.071Z,41054.91
2023-05-05T17:11:36.465Z,41198.53
2023-05-05T17:14:03.936Z,41152.66
2023-05-05T17:16:31.696Z,41226.47
2023-05-05T17:19:17.217Z,41170.63
2023-05-05T17:22:12.467Z,41044.94
2023-05-05T17:24:39.711Z,41015.00
2023-05-05T17:27:07.167Z,40981.09
2023-05-05T17:29:40.771Z,41032.97
2023-05-05T17:32:11.013Z,41126.72
2023-05-05T17:34:38.700Z,41302.28
2023-05-05T17:37:09.262Z,41332.22
2023-05-05T17:39:39.197Z,41451.94
2023-05-05T17:42:06.557Z,41753.22
2023-05-05T17:44:36.114Z,41683.38
2023-05-05T17:47:04.024Z,41601.56
2023-05-05T17:49:31.552Z,41581.63
2023-05-05T17:51:58.851Z,41553.69
2023-05-05T17:54:26.403Z,41471.88
2023-05-05T17:56:55.750Z,41284.34
2023-05-05T17:59:23.483Z,41378.09
2023-05-05T18:01:50.861Z,41346.19
2023-05-05T18:04:20.691Z,41234.47
2023-05-05T18:06:48.543Z,41174.59
2023-05-05T18:09:18.067Z,41326.22
2023-05-05T18:11:48.097Z,41136.69
2023-05-05T18:14:23.749Z,41354.16
2023-05-05T18:16:52.344Z,41449.94
2023-05-05T18:19:23.246Z,41461.91
2023-05-05T18:21:54.846Z,41220.50
2023-05-05T18:24:22.220Z,41178.59
2023-05-05T18:26:51.288Z,41084.81
2023-05-05T18:29:19.644Z,41256.41
2023-05-05T18:31:51.923Z,41222.47
2023-05-05T18:34:20.542Z,41022.97
2023-05-05T18:36:50.747Z,41218.50
2023-05-05T18:39:18.020Z,41330.22
2023-05-05T18:41:49.710Z,41477.88
2023-05-05T18:44:19.973Z,41515.78
2023-05-05T18:46:48.014Z,41587.59
2023-05-05T18:49:15.512Z,41649.47
2023-05-05T18:51:43.398Z,41711.31
2023-05-05T18:54:10.763Z,41679.38
2023-05-05T18:56:38.107Z,41751.22
2023-05-05T18:59:05.512Z,41815.06
2023-05-05T19:01:35.136Z,41709.31
2023-05-05T19:04:08.528Z,41637.47
2023-05-05T19:06:40.772Z,41854.97
2023-05-05T19:09:08.148Z,41992.66
2023-05-05T19:11:41.760Z,41799.09
2023-05-05T19:14:09.067Z,42202.22
2023-05-05T19:16:43.689Z,41954.75
2023-05-05T19:19:13.322Z,42090.44
2023-05-05T19:21:43.233Z,41841.00
2023-05-05T19:24:12.478Z,42216.19
2023-05-05T19:26:40.095Z,42367.84
2023-05-05T19:29:07.514Z,42282.03
2023-05-05T19:31:34.966Z,42164.28
2023-05-05T19:34:04.360Z,42172.28
2023-05-05T19:36:32.896Z,42373.84
2023-05-05T19:39:01.896Z,42298.00
2023-05-05T19:41:30.502Z,42138.34
2023-05-05T19:44:00.187Z,42022.59
2023-05-05T19:46:29.705Z,42184.25
2023-05-05T19:48:59.482Z,42138.34
2023-05-05T19:51:27.308Z,42036.56
2023-05-05T19:53:54.501Z,41841.00
2023-05-05T19:56:23.004Z,42012.63
2023-05-05T19:58:59.197Z,41922.81
2023-05-05T20:01:28.250Z,42030.59
2023-05-05T20:03:56.623Z,41948.78
2023-05-05T20:06:24.343Z,41685.38
2023-05-05T20:08:56.818Z,41803.09
2023-05-05T20:11:25.795Z,41621.53
2023-05-05T20:13:53.254Z,41597.56
2023-05-05T20:16:22.038Z,41330.22
2023-05-05T20:18:49.797Z,41188.56
2023-05-05T20:21:18.214Z,41370.13
2023-05-05T20:23:47.560Z,41296.31
2023-05-05T20:26:14.700Z,41046.94
2023-05-05T20:28:45.062Z,41056.91
2023-05-05T20:31:14.374Z,41050.91
2023-05-05T20:33:41.981Z,41094.81
2023-05-05T20:36:09.420Z,41046.94
2023-05-05T20:38:41.678Z,40771.63
2023-05-05T20:41:11.547Z,40855.41
2023-05-05T20:43:41.211Z,41009.03
2023-05-05T20:46:13.034Z,40777.63
2023-05-05T20:48:42.724Z,41106.78
2023-05-05T20:51:13.307Z,41110.75
2023-05-05T20:53:40.673Z,41410.03
2023-05-05T20:56:10.678Z,41463.91
2023-05-05T20:58:41.241Z,41465.91
2023-05-05T21:01:08.755Z,41398.06
2023-05-05T21:03:36.333Z,41250.41
2023-05-05T21:06:05.876Z,41278.34
2023-05-05T21:08:35.507Z,41485.84
2023-05-05T21:11:03.095Z,41216.50
2023-05-05T21:13:30.492Z,41374.13
2023-05-05T21:15:57.966Z,41511.78
2023-05-05T21:18:27.228Z,41507.78
2023-05-05T21:20:54.853Z,41447.94
2023-05-05T21:23:24.283Z,41505.78
2023-05-05T21:25:51.842Z,41597.56
2023-05-05T21:28:19.198Z,41529.75
2023-05-05T21:30:54.961Z,41579.63
2023-05-05T21:33:34.631Z,41809.09
2023-05-05T21:36:02.108Z,41847.00
2023-05-05T21:38:29.532Z,41693.34
2023-05-05T21:40:58.356Z,41535.72
2023-05-05T21:43:26.549Z,41499.81
2023-05-05T21:46:05.536Z,41348.19
2023-05-05T21:48:32.838Z,41513.78
2023-05-05T21:51:02.558Z,41326.22
2023-05-05T21:53:29.765Z,41214.50
2023-05-05T21:55:57.139Z,41164.63
2023-05-05T21:58:27.152Z,41092.81
2023-05-05T22:00:56.683Z,41400.06
2023-05-05T22:03:24.191Z,41276.34
2023-05-05T22:05:54.071Z,41202.53
2023-05-05T22:08:23.510Z,41242.44
2023-05-05T22:10:53.512Z,41312.25
2023-05-05T22:13:23.207Z,41228.47
2023-05-05T22:15:50.893Z,41222.47
2023-05-05T22:18:25.590Z,41196.56
2023-05-05T22:20:53.013Z,41128.72
2023-05-05T22:23:20.420Z,41092.81
2023-05-05T22:25:49.056Z,41066.88
2023-05-05T22:28:18.545Z,41009.03
2023-05-05T22:30:46.405Z,41110.75
2023-05-05T22:33:13.666Z,41202.53
2023-05-05T22:35:41.369Z,41194.56
2023-05-05T22:38:10.962Z,41152.66
2023-05-05T22:40:38.429Z,41108.78
2023-05-05T22:43:05.880Z,41054.91
2023-05-05T22:45:36.668Z,41082.84
2023-05-05T22:48:04.757Z,41082.84
2023-05-05T22:50:34.202Z,41174.59
2023-05-05T22:53:03.776Z,41172.59
2023-05-05T22:55:34.033Z,41258.41
2023-05-05T22:58:01.658Z,41204.53
2023-05-05T23:00:29.378Z,41358.16
2023-05-05T23:02:58.158Z,41334.22
2023-05-05T23:05:27.730Z,41420.00
2023-05-05T23:08:01.239Z,41340.19
2023-05-05T23:10:29.031Z,41477.88
2023-05-05T23:12:58.514Z,41396.06
2023-05-05T23:15:25.780Z,41326.22
2023-05-05T23:17:53.097Z,41447.94
2023-05-05T23:20:22.854Z,41429.97
2023-05-05T23:22:52.565Z,41278.34
2023-05-05T23:25:20.170Z,41042.94
2023-05-05T23:27:47.940Z,40993.06
2023-05-05T23:30:15.498Z,41242.44
2023-05-05T23:32:44.951Z,41214.50
2023-05-05T23:35:14.641Z,41342.19
2023-05-05T23:37:41.916Z,41346.19
2023-05-05T23:40:09.539Z,41386.09
2023-05-05T23:42:36.887Z,41254.41
2023-05-05T23:45:04.454Z,41252.41
2023-05-05T23:47:32.275Z,41270.38
2023-05-05T23:49:59.603Z,41216.50
2023-05-05T23:52:26.947Z,41252.41
2023-05-05T23:54:54.322Z,41491.81
2023-05-05T23:57:26.204Z,41374.13
2023-05-05T23:59:53.529Z,41238.44
